createdAt,value
2019-05-25T00:01:04.377Z,8.20
2019-05-25T00:03:33.596Z,7.00
2019-05-25T00:06:02.501Z,8.80
2019-05-25T00:08:31.352Z,8.80
2019-05-25T00:11:00.895Z,7.10
2019-05-25T00:13:29.759Z,7.43
2019-05-25T00:15:59.227Z,7.60
2019-05-25T00:18:28.153Z,10.33
2019-05-25T00:20:57.423Z,7.60
2019-05-25T00:23:26.917Z,8.83
2019-05-25T00:25:56.017Z,7.83
2019-05-25T00:28:25.253Z,8.60
2019-05-25T00:30:54.174Z,7.00
2019-05-25T00:33:23.346Z,8.13
2019-05-25T00:35:52.809Z,8.73
2019-05-25T00:38:21.663Z,11.03
2019-05-25T00:40:50.572Z,7.90
2019-05-25T00:43:19.500Z,7.33
2019-05-25T00:45:48.340Z,7.20
2019-05-25T00:48:17.573Z,7.73
2019-05-25T00:50:46.773Z,6.87
2019-05-25T00:53:15.681Z,9.43
2019-05-25T00:55:44.870Z,8.00
2019-05-25T00:58:14.697Z,8.37
2019-05-25T01:00:43.617Z,10.67
2019-05-25T01:03:12.549Z,6.90
2019-05-25T01:05:41.506Z,7.73
2019-05-25T01:08:10.445Z,6.67
2019-05-25T01:10:39.849Z,6.80
2019-05-25T01:13:08.709Z,8.93
2019-05-25T01:15:37.613Z,6.50
2019-05-25T01:18:06.608Z,10.17
2019-05-25T01:20:35.539Z,6.87
2019-05-25T01:23:04.813Z,7.80
2019-05-25T01:25:33.730Z,7.47
2019-05-25T01:28:02.592Z,8.43
2019-05-25T01:30:31.800Z,8.73
2019-05-25T01:33:00.735Z,8.60
2019-05-25T01:35:29.657Z,9.57
2019-05-25T01:37:58.490Z,9.30
2019-05-25T01:40:27.654Z,7.10
2019-05-25T01:42:56.494Z,6.77
2019-05-25T01:45:25.858Z,7.70
2019-05-25T01:47:55.058Z,7.70
2019-05-25T01:50:23.937Z,11.50
2019-05-25T01:52:52.846Z,6.33
2019-05-25T01:55:21.797Z,8.50
2019-05-25T01:57:51.034Z,6.90
2019-05-25T02:00:20.778Z,8.10
2019-05-25T02:02:50.045Z,7.07
2019-05-25T02:05:19.401Z,7.23
2019-05-25T02:07:48.253Z,7.70
2019-05-25T02:10:17.252Z,6.80
2019-05-25T02:12:46.100Z,9.00
2019-05-25T02:15:15.522Z,9.50
2019-05-25T02:17:44.445Z,12.37
2019-05-25T02:20:13.737Z,7.50
2019-05-25T02:22:42.572Z,7.47
2019-05-25T02:25:18.202Z,8.27
2019-05-25T02:27:43.358Z,7.63
2019-05-25T02:30:12.867Z,8.07
2019-05-25T02:32:41.790Z,6.33
2019-05-25T02:35:19.653Z,7.77
2019-05-25T02:37:48.533Z,8.37
2019-05-25T02:40:17.478Z,7.37
2019-05-25T02:42:46.635Z,8.00
2019-05-25T02:45:16.057Z,11.43
2019-05-25T02:47:45.249Z,8.07
2019-05-25T02:50:14.481Z,7.93
2019-05-25T02:52:43.321Z,7.83
2019-05-25T02:55:13.156Z,7.87
2019-05-25T02:57:42.074Z,8.10
2019-05-25T03:00:11.850Z,11.60
2019-05-25T03:02:41.195Z,7.87
2019-05-25T03:05:12.161Z,9.30
2019-05-25T03:07:41.545Z,7.67
2019-05-25T03:10:10.993Z,7.33
2019-05-25T03:12:40.573Z,7.27
2019-05-25T03:15:09.588Z,7.50
2019-05-25T03:17:38.565Z,7.63
2019-05-25T03:20:07.564Z,7.43
2019-05-25T03:22:36.479Z,7.77
2019-05-25T03:25:05.946Z,8.20
2019-05-25T03:27:34.903Z,9.23
2019-05-25T03:30:04.765Z,8.57
2019-05-25T03:32:33.984Z,11.20
2019-05-25T03:35:02.952Z,8.20
2019-05-25T03:37:32.070Z,7.70
2019-05-25T03:40:00.989Z,7.00
2019-05-25T03:42:30.341Z,6.80
2019-05-25T03:44:59.797Z,8.10
2019-05-25T03:47:29.052Z,7.50
2019-05-25T03:49:58.370Z,8.40
2019-05-25T03:52:27.299Z,8.60
2019-05-25T03:54:56.218Z,9.43
2019-05-25T03:57:25.943Z,12.00
2019-05-25T03:59:55.064Z,8.13
2019-05-25T04:02:25.937Z,8.30
2019-05-25T04:04:54.882Z,9.17
2019-05-25T04:07:23.865Z,11.30
2019-05-25T04:09:52.709Z,8.47
2019-05-25T04:12:21.940Z,10.17
2019-05-25T04:14:50.873Z,8.80
2019-05-25T04:17:19.745Z,8.63
2019-05-25T04:19:48.609Z,9.73
2019-05-25T04:22:17.553Z,9.30
2019-05-25T04:24:46.857Z,8.93
2019-05-25T04:27:15.825Z,12.40
2019-05-25T04:29:44.749Z,10.30
2019-05-25T04:32:13.705Z,8.50
2019-05-25T04:34:42.647Z,8.60
2019-05-25T04:37:11.632Z,9.70
2019-05-25T04:39:40.494Z,9.30
2019-05-25T04:42:09.685Z,11.10
2019-05-25T04:44:38.555Z,10.27
2019-05-25T04:47:07.433Z,13.00
2019-05-25T04:49:36.381Z,11.80
2019-05-25T04:52:05.778Z,10.20
2019-05-25T04:54:34.794Z,10.40
2019-05-25T04:57:04.381Z,8.80
2019-05-25T04:59:33.791Z,9.27
2019-05-25T05:02:02.819Z,8.73
2019-05-25T05:04:31.758Z,8.93
2019-05-25T05:07:00.721Z,12.47
2019-05-25T05:09:30.062Z,9.80
2019-05-25T05:11:59.017Z,8.07
2019-05-25T05:14:28.104Z,8.70
2019-05-25T05:16:57.062Z,13.33
2019-05-25T05:19:25.917Z,8.53
2019-05-25T05:21:54.773Z,9.73
2019-05-25T05:24:25.550Z,8.90
2019-05-25T05:26:56.128Z,10.63
2019-05-25T05:29:25.038Z,9.00
2019-05-25T05:31:53.991Z,8.97
2019-05-25T05:34:23.005Z,8.93
2019-05-25T05:36:52.874Z,10.20
2019-05-25T05:39:22.979Z,8.43
2019-05-25T05:41:54.712Z,8.93
2019-05-25T05:44:26.801Z,8.87
2019-05-25T05:46:57.633Z,8.20
2019-05-25T05:49:27.504Z,10.10
2019-05-25T05:51:57.976Z,13.23
2019-05-25T05:54:27.257Z,8.80
2019-05-25T05:57:11.156Z,10.10
2019-05-25T05:59:26.769Z,9.67
2019-05-25T06:01:55.620Z,11.87
2019-05-25T06:04:24.476Z,7.17
2019-05-25T06:06:53.317Z,9.60
2019-05-25T06:09:22.163Z,7.23
2019-05-25T06:11:51.147Z,11.00
2019-05-25T06:14:20.373Z,10.93
2019-05-25T06:16:49.280Z,8.10
2019-05-25T06:19:18.257Z,8.27
2019-05-25T06:21:47.173Z,11.93
2019-05-25T06:24:16.092Z,7.80
2019-05-25T06:26:45.001Z,9.90
2019-05-25T06:29:13.856Z,10.13
2019-05-25T06:31:42.693Z,6.90
2019-05-25T06:34:11.628Z,9.00
2019-05-25T06:36:40.761Z,7.37
2019-05-25T06:39:10.112Z,8.17
2019-05-25T06:41:39.224Z,8.97
2019-05-25T06:44:08.511Z,8.67
2019-05-25T06:46:39.689Z,7.80
2019-05-25T06:49:08.737Z,8.27
2019-05-25T06:51:37.954Z,8.50
2019-05-25T06:54:06.962Z,7.80
2019-05-25T06:56:35.809Z,11.73
2019-05-25T06:59:04.958Z,8.63
2019-05-25T07:01:33.910Z,8.70
2019-05-25T07:04:02.971Z,9.93
2019-05-25T07:06:32.189Z,10.00
2019-05-25T07:09:01.153Z,9.97
2019-05-25T07:11:30.294Z,9.47
2019-05-25T07:13:59.146Z,9.00
2019-05-25T07:16:27.997Z,8.30
2019-05-25T07:18:56.845Z,7.83
2019-05-25T07:21:26.061Z,11.17
2019-05-25T07:23:54.918Z,9.57
2019-05-25T07:26:23.830Z,10.40
2019-05-25T07:28:52.757Z,8.37
2019-05-25T07:31:21.668Z,9.00
2019-05-25T07:33:50.542Z,8.80
2019-05-25T07:36:19.533Z,11.90
2019-05-25T07:38:48.518Z,9.93
2019-05-25T07:41:17.353Z,7.40
2019-05-25T07:43:46.658Z,10.30
2019-05-25T07:46:17.241Z,9.67
2019-05-25T07:48:50.197Z,8.43
2019-05-25T07:51:17.493Z,8.60
2019-05-25T07:53:46.456Z,9.27
2019-05-25T07:56:15.306Z,9.57
2019-05-25T07:58:44.758Z,9.57
2019-05-25T08:01:13.588Z,9.43
2019-05-25T08:03:43.009Z,9.10
2019-05-25T08:06:15.746Z,8.63
2019-05-25T08:08:44.762Z,9.13
2019-05-25T08:11:13.700Z,9.17
2019-05-25T08:13:43.049Z,9.90
2019-05-25T08:16:12.437Z,9.37
2019-05-25T08:18:41.458Z,9.10
2019-05-25T08:21:10.700Z,9.77
2019-05-25T08:23:39.678Z,10.57
2019-05-25T08:26:08.633Z,8.83
2019-05-25T08:28:38.135Z,9.93
2019-05-25T08:31:07.101Z,10.93
2019-05-25T08:33:36.052Z,8.70
2019-05-25T08:36:05.065Z,8.00
2019-05-25T08:38:34.282Z,8.00
2019-05-25T08:41:03.616Z,8.47
2019-05-25T08:43:32.789Z,8.43
2019-05-25T08:46:01.655Z,9.73
2019-05-25T08:48:30.872Z,8.77
2019-05-25T08:50:59.928Z,8.53
2019-05-25T08:53:40.555Z,8.33
2019-05-25T08:56:00.005Z,9.57
2019-05-25T08:58:29.206Z,8.93
2019-05-25T09:00:58.841Z,9.63
2019-05-25T09:03:27.707Z,8.57
2019-05-25T09:05:56.645Z,9.50
2019-05-25T09:08:25.585Z,8.53
2019-05-25T09:10:54.450Z,9.77
2019-05-25T09:13:23.372Z,8.77
2019-05-25T09:15:52.337Z,9.20
2019-05-25T09:18:21.209Z,8.33
2019-05-25T09:20:50.187Z,9.50
2019-05-25T09:23:19.119Z,17.30
2019-05-25T09:25:48.063Z,10.87
2019-05-25T09:28:16.912Z,9.47
2019-05-25T09:30:46.327Z,9.17
2019-05-25T09:33:15.699Z,10.57
2019-05-25T09:35:44.572Z,12.67
2019-05-25T09:38:13.817Z,10.10
2019-05-25T09:40:42.760Z,10.87
2019-05-25T09:43:11.694Z,10.30
2019-05-25T09:45:40.884Z,9.90
2019-05-25T09:48:09.815Z,10.40
2019-05-25T09:50:38.689Z,10.97
2019-05-25T09:53:07.806Z,9.30
2019-05-25T09:55:36.716Z,11.70
2019-05-25T09:58:06.109Z,10.13
2019-05-25T10:00:39.889Z,12.60
2019-05-25T10:03:06.336Z,13.23
2019-05-25T10:05:35.610Z,11.03
2019-05-25T10:08:04.925Z,9.23
2019-05-25T10:10:34.121Z,10.33
2019-05-25T10:13:04.630Z,11.03
2019-05-25T10:15:34.177Z,9.87
2019-05-25T10:18:03.623Z,10.73
2019-05-25T10:20:32.683Z,9.60
2019-05-25T10:23:02.131Z,10.10
2019-05-25T10:25:31.372Z,12.10
2019-05-25T10:28:00.462Z,9.10
2019-05-25T10:30:29.556Z,10.20
2019-05-25T10:32:58.574Z,12.50
2019-05-25T10:35:27.750Z,10.00
2019-05-25T10:37:57.332Z,9.80
2019-05-25T10:40:26.466Z,11.47
2019-05-25T10:42:55.554Z,10.30
2019-05-25T10:45:24.661Z,11.03
2019-05-25T10:47:53.874Z,14.00
2019-05-25T10:50:23.517Z,14.07
2019-05-25T10:52:52.698Z,9.70
2019-05-25T10:55:21.993Z,9.73
2019-05-25T10:57:51.135Z,9.40
2019-05-25T11:00:20.731Z,10.40
2019-05-25T11:02:50.049Z,9.27
2019-05-25T11:05:19.485Z,10.07
2019-05-25T11:07:48.686Z,9.33
2019-05-25T11:10:18.558Z,10.50
2019-05-25T11:12:47.606Z,9.87
2019-05-25T11:15:16.613Z,9.10
2019-05-25T11:17:45.867Z,9.63
2019-05-25T11:20:15.919Z,11.60
2019-05-25T11:22:45.159Z,11.80
2019-05-25T11:25:14.769Z,10.97
2019-05-25T11:27:43.734Z,15.40
2019-05-25T11:30:13.472Z,10.07
2019-05-25T11:32:42.742Z,10.97
2019-05-25T11:35:11.741Z,13.60
2019-05-25T11:37:40.687Z,11.50
2019-05-25T11:40:10.081Z,12.50
2019-05-25T11:42:39.112Z,13.60
2019-05-25T11:45:08.738Z,17.40
2019-05-25T11:47:38.083Z,14.63
2019-05-25T11:50:08.168Z,14.97
2019-05-25T11:52:37.900Z,16.07
2019-05-25T11:55:07.785Z,17.90
2019-05-25T11:57:37.696Z,19.70
2019-05-25T12:00:21.951Z,25.33
2019-05-25T12:02:38.515Z,22.03
2019-05-25T12:05:08.720Z,18.37
2019-05-25T12:07:38.011Z,20.33
2019-05-25T12:10:08.720Z,19.90
2019-05-25T12:12:37.655Z,16.80
2019-05-25T12:15:06.685Z,18.00
2019-05-25T12:17:36.010Z,20.00
2019-05-25T12:20:06.086Z,19.60
2019-05-25T12:22:35.004Z,19.60
2019-05-25T12:25:04.500Z,23.40
2019-05-25T12:27:33.738Z,19.90
2019-05-25T12:30:02.675Z,19.27
2019-05-25T12:32:31.522Z,20.57
2019-05-25T12:35:00.384Z,20.50
2019-05-25T12:37:29.373Z,21.33
2019-05-25T12:39:58.301Z,21.73
2019-05-25T12:42:27.177Z,23.33
2019-05-25T12:44:56.334Z,21.70
2019-05-25T12:47:25.545Z,21.57
2019-05-25T12:49:54.676Z,21.20
2019-05-25T12:52:23.607Z,19.97
2019-05-25T12:54:52.874Z,20.10
2019-05-25T12:57:24.153Z,18.97
2019-05-25T12:59:52.385Z,16.70
2019-05-25T13:02:21.326Z,15.23
2019-05-25T13:04:50.186Z,12.87
2019-05-25T13:07:19.043Z,9.93
2019-05-25T13:09:47.952Z,9.70
2019-05-25T13:12:16.969Z,9.83
2019-05-25T13:14:46.146Z,10.40
2019-05-25T13:17:15.196Z,9.23
2019-05-25T13:19:44.048Z,9.70
2019-05-25T13:22:12.986Z,7.40
2019-05-25T13:24:41.865Z,8.00
2019-05-25T13:27:10.788Z,7.60
2019-05-25T13:29:39.908Z,8.23
2019-05-25T13:32:09.113Z,9.40
2019-05-25T13:34:38.050Z,8.77
2019-05-25T13:37:07.054Z,8.97
2019-05-25T13:39:55.105Z,8.80
2019-05-25T13:42:24.073Z,8.77
2019-05-25T13:44:52.933Z,8.50
2019-05-25T13:47:22.197Z,7.47
2019-05-25T13:49:51.084Z,7.13
2019-05-25T13:52:19.973Z,6.07
2019-05-25T13:54:48.822Z,6.80
2019-05-25T13:57:17.760Z,6.53
2019-05-25T13:59:46.665Z,5.40
2019-05-25T14:02:15.513Z,6.30
2019-05-25T14:04:44.373Z,6.40
2019-05-25T14:07:14.057Z,6.60
2019-05-25T14:09:42.917Z,6.40
2019-05-25T14:12:11.830Z,6.20
2019-05-25T14:14:41.445Z,7.80
2019-05-25T14:17:10.654Z,6.73
2019-05-25T14:19:41.500Z,8.73
2019-05-25T14:22:10.144Z,6.50
2019-05-25T14:24:39.001Z,4.57
2019-05-25T14:27:08.169Z,4.20
2019-05-25T14:29:56.237Z,3.63
2019-05-25T14:32:25.074Z,4.97
2019-05-25T14:34:53.940Z,5.73
2019-05-25T14:37:22.977Z,5.67
2019-05-25T14:39:52.172Z,4.70
2019-05-25T14:42:21.080Z,3.90
2019-05-25T14:44:49.941Z,4.60
2019-05-25T14:47:18.928Z,4.60
2019-05-25T14:49:48.141Z,6.43
2019-05-25T14:52:17.099Z,4.73
2019-05-25T14:54:46.229Z,4.67
2019-05-25T14:57:15.178Z,7.47
2019-05-25T14:59:44.125Z,4.73
2019-05-25T15:02:13.315Z,5.73
2019-05-25T15:04:42.242Z,4.30
2019-05-25T15:07:11.208Z,4.10
2019-05-25T15:09:40.112Z,5.77
2019-05-25T15:12:08.949Z,8.43
2019-05-25T15:14:38.177Z,4.87
2019-05-25T15:17:07.028Z,7.90
2019-05-25T15:19:35.949Z,5.50
2019-05-25T15:22:05.071Z,5.80
2019-05-25T15:24:34.009Z,5.50
2019-05-25T15:27:03.254Z,4.60
2019-05-25T15:29:32.181Z,5.17
2019-05-25T15:32:18.490Z,6.23
2019-05-25T15:34:32.561Z,4.90
2019-05-25T15:37:01.404Z,4.30
2019-05-25T15:39:30.362Z,5.80
2019-05-25T15:41:59.342Z,8.03
2019-05-25T15:44:28.196Z,6.03
2019-05-25T15:46:57.114Z,6.17
2019-05-25T15:49:33.331Z,6.00
2019-05-25T15:51:56.672Z,5.00
2019-05-25T15:54:25.528Z,6.00
2019-05-25T15:56:54.438Z,5.83
2019-05-25T15:59:23.803Z,11.57
2019-05-25T16:01:52.993Z,6.27
2019-05-25T16:04:21.913Z,6.30
2019-05-25T16:06:51.151Z,5.10
2019-05-25T16:09:20.072Z,5.20
2019-05-25T16:11:48.925Z,5.70
2019-05-25T16:14:17.802Z,5.53
2019-05-25T16:16:47.603Z,7.03
2019-05-25T16:19:16.859Z,5.93
2019-05-25T16:21:45.785Z,5.43
2019-05-25T16:24:15.018Z,6.10
2019-05-25T16:26:46.312Z,5.80
2019-05-25T16:29:15.172Z,5.97
2019-05-25T16:31:44.197Z,5.30
2019-05-25T16:34:13.755Z,5.30
2019-05-25T16:36:42.684Z,4.83
2019-05-25T16:39:11.689Z,10.10
2019-05-25T16:41:40.941Z,10.90
2019-05-25T16:44:09.924Z,6.07
2019-05-25T16:46:39.138Z,5.47
2019-05-25T16:49:08.134Z,5.60
2019-05-25T16:51:37.325Z,5.60
2019-05-25T16:54:06.523Z,4.90
2019-05-25T16:56:35.910Z,5.30
2019-05-25T16:59:05.241Z,5.17
2019-05-25T17:01:47.502Z,5.60
2019-05-25T17:04:04.822Z,5.13
2019-05-25T17:06:33.708Z,6.23
2019-05-25T17:09:02.843Z,5.83
2019-05-25T17:11:31.763Z,6.63
2019-05-25T17:14:00.610Z,6.60
2019-05-25T17:16:29.477Z,6.27
2019-05-25T17:18:58.409Z,6.70
2019-05-25T17:21:27.357Z,6.40
2019-05-25T17:23:56.209Z,5.83
2019-05-25T17:26:25.149Z,7.73
2019-05-25T17:28:54.009Z,8.33
2019-05-25T17:31:22.944Z,7.60
2019-05-25T17:33:52.741Z,8.83
2019-05-25T17:36:22.078Z,5.90
2019-05-25T17:38:51.047Z,6.73
2019-05-25T17:41:19.990Z,6.27
2019-05-25T17:43:50.610Z,6.00
2019-05-25T17:46:20.926Z,5.60
2019-05-25T17:48:50.521Z,6.00
2019-05-25T17:51:19.486Z,7.10
2019-05-25T17:53:48.380Z,5.60
2019-05-25T17:56:17.321Z,6.70
2019-05-25T17:58:46.657Z,5.27
2019-05-25T18:01:15.713Z,5.47
2019-05-25T18:04:04.198Z,6.00
2019-05-25T18:06:16.899Z,8.50
2019-05-25T18:08:46.131Z,8.60
2019-05-25T18:11:15.242Z,5.80
2019-05-25T18:13:44.149Z,5.43
2019-05-25T18:16:13.456Z,5.90
2019-05-25T18:18:42.395Z,5.67
2019-05-25T18:21:11.954Z,6.00
2019-05-25T18:23:40.826Z,6.20
2019-05-25T18:26:14.010Z,6.53
2019-05-25T18:28:42.868Z,6.50
2019-05-25T18:31:11.918Z,6.53
2019-05-25T18:33:41.422Z,6.50
2019-05-25T18:36:10.921Z,6.20
2019-05-25T18:38:40.361Z,8.43
2019-05-25T18:41:09.849Z,5.80
2019-05-25T18:43:38.745Z,6.20
2019-05-25T18:46:07.701Z,8.03
2019-05-25T18:48:36.562Z,6.60
2019-05-25T18:51:05.918Z,6.53
2019-05-25T18:53:34.768Z,7.60
2019-05-25T18:56:03.878Z,7.03
2019-05-25T18:58:32.912Z,7.87
2019-05-25T19:01:02.296Z,8.03
2019-05-25T19:03:31.701Z,16.73
2019-05-25T19:06:01.302Z,7.00
2019-05-25T19:08:30.238Z,7.20
2019-05-25T19:10:59.389Z,8.10
2019-05-25T19:13:28.325Z,6.97
2019-05-25T19:15:59.371Z,6.70
2019-05-25T19:18:28.447Z,7.73
2019-05-25T19:20:57.386Z,6.30
2019-05-25T19:23:26.408Z,7.57
2019-05-25T19:25:55.260Z,7.40
2019-05-25T19:28:24.485Z,8.53
2019-05-25T19:30:53.760Z,8.00
2019-05-25T19:33:22.655Z,8.53
2019-05-25T19:35:54.200Z,8.80
2019-05-25T19:38:22.193Z,8.20
2019-05-25T19:40:51.513Z,8.17
2019-05-25T19:43:20.457Z,8.10
2019-05-25T19:45:49.347Z,7.97
2019-05-25T19:48:18.277Z,8.23
2019-05-25T19:50:47.289Z,9.17
2019-05-25T19:53:16.151Z,8.20
2019-05-25T19:55:45.321Z,12.60
2019-05-25T19:58:14.784Z,10.17
2019-05-25T20:00:43.645Z,10.00
2019-05-25T20:03:12.667Z,9.83
2019-05-25T20:05:42.071Z,10.57
2019-05-25T20:08:11.021Z,11.07
2019-05-25T20:10:40.032Z,10.10
2019-05-25T20:13:08.908Z,12.43
2019-05-25T20:15:37.757Z,10.63
2019-05-25T20:18:06.777Z,12.70
2019-05-25T20:20:36.027Z,9.43
2019-05-25T20:23:05.330Z,10.10
2019-05-25T20:25:34.629Z,10.37
2019-05-25T20:28:03.668Z,10.07
2019-05-25T20:30:33.174Z,11.23
2019-05-25T20:33:04.601Z,10.57
2019-05-25T20:35:33.767Z,12.47
2019-05-25T20:38:03.005Z,10.60
2019-05-25T20:40:31.957Z,8.90
2019-05-25T20:43:00.909Z,10.60
2019-05-25T20:45:30.056Z,12.70
2019-05-25T20:47:59.359Z,10.60
2019-05-25T20:50:28.628Z,15.07
2019-05-25T20:52:57.613Z,16.80
2019-05-25T20:55:26.750Z,15.30
2019-05-25T20:57:55.802Z,16.00
2019-05-25T21:00:24.857Z,19.37
2019-05-25T21:03:05.269Z,15.97
2019-05-25T21:05:24.466Z,10.60
2019-05-25T21:07:53.328Z,11.30
2019-05-25T21:10:22.345Z,16.73
2019-05-25T21:12:51.207Z,18.97
2019-05-25T21:15:20.751Z,16.77
2019-05-25T21:17:49.949Z,12.40
2019-05-25T21:20:19.257Z,11.33
2019-05-25T21:22:48.123Z,9.10
2019-05-25T21:25:17.737Z,10.53
2019-05-25T21:27:46.682Z,11.20
2019-05-25T21:30:16.854Z,21.53
2019-05-25T21:32:45.797Z,10.93
2019-05-25T21:35:14.834Z,17.10
2019-05-25T21:37:44.050Z,17.00
2019-05-25T21:40:13.097Z,14.80
2019-05-25T21:42:42.109Z,10.73
2019-05-25T21:45:11.637Z,10.07
2019-05-25T21:47:40.485Z,9.10
2019-05-25T21:50:09.685Z,9.17
2019-05-25T21:52:38.622Z,8.80
2019-05-25T21:55:07.934Z,7.90
2019-05-25T21:57:37.219Z,8.30
2019-05-25T22:00:07.435Z,10.20
2019-05-25T22:02:36.436Z,9.50
2019-05-25T22:05:06.182Z,8.37
2019-05-25T22:07:35.254Z,8.50
2019-05-25T22:10:07.796Z,10.87
2019-05-25T22:12:39.984Z,9.43
2019-05-25T22:15:10.637Z,10.23
2019-05-25T22:17:39.989Z,8.80
2019-05-25T22:20:09.522Z,8.70
2019-05-25T22:22:38.821Z,8.20
2019-05-25T22:25:08.149Z,9.03
2019-05-25T22:27:37.497Z,8.47
2019-05-25T22:30:07.754Z,9.13
2019-05-25T22:32:37.057Z,7.93
2019-05-25T22:35:06.082Z,8.30
2019-05-25T22:37:35.349Z,10.90
2019-05-25T22:40:04.430Z,8.97
2019-05-25T22:42:33.641Z,8.43
2019-05-25T22:45:02.497Z,7.70
2019-05-25T22:47:31.348Z,9.37
2019-05-25T22:50:00.292Z,8.07
2019-05-25T22:52:29.212Z,8.40
2019-05-25T22:54:58.136Z,8.57
2019-05-25T22:57:27.061Z,10.60
2019-05-25T22:59:56.079Z,8.67
2019-05-25T23:02:24.930Z,8.23
2019-05-25T23:04:53.950Z,10.00
2019-05-25T23:07:22.812Z,10.47
2019-05-25T23:09:51.673Z,9.53
2019-05-25T23:12:20.612Z,10.10
2019-05-25T23:14:49.739Z,9.43
2019-05-25T23:17:18.609Z,10.53
2019-05-25T23:19:47.726Z,9.00
2019-05-25T23:22:16.597Z,8.67
2019-05-25T23:24:45.521Z,7.13
2019-05-25T23:27:16.172Z,7.70
2019-05-25T23:29:45.184Z,7.60
2019-05-25T23:32:14.061Z,7.80
2019-05-25T23:34:42.934Z,8.17
2019-05-25T23:37:14.938Z,8.43
2019-05-25T23:39:42.534Z,9.13
2019-05-25T23:42:11.852Z,8.20
2019-05-25T23:44:40.792Z,7.90
2019-05-25T23:47:09.663Z,8.00
2019-05-25T23:49:38.513Z,10.00
2019-05-25T23:52:07.524Z,8.20
2019-05-25T23:54:36.377Z,7.83
2019-05-25T23:57:05.393Z,9.90
2019-05-25T23:59:34.257Z,8.37
